Time;durP1;ratioP1;P1;durP2;ratioP2;P2;SDS_P1;SDS_P2;PMS_P1;PMS_P2;Temp;Humidity;BMP_temperature;BMP_pressure;BME280_temperature;BME280_humidity;BME280_pressure;Samples;Min_cycle;Max_cycle;Signal;HPM_P1;HPM_P2
2022/07/04 00:00:21;;;;;;;0.20;0.20;;;;;;;15.49;95.93;100669.44;5033774;28;20207;-72
2022/07/04 00:02:47;;;;;;;0.23;0.23;;;;;;;15.46;95.46;100673.66;5033106;28;20206;-72
2022/07/04 00:05:13;;;;;;;0.00;0.00;;;;;;;15.46;95.42;100673.66;5033561;28;20568;-72
2022/07/04 00:07:43;;;;;;;0.00;0.00;;;;;;;15.47;95.71;100674.47;5033377;28;20214;-72
2022/07/04 00:10:10;;;;;;;0.27;0.10;;;;;;;15.43;95.55;100665.28;5033179;28;20643;-72
2022/07/04 00:12:36;;;;;;;0.00;0.00;;;;;;;15.39;95.72;100672.63;5033569;28;20176;-72
2022/07/04 00:15:03;;;;;;;0.00;0.00;;;;;;;15.29;96.88;100673.81;5033413;28;20659;-71
2022/07/04 00:17:28;;;;;;;2.33;0.70;;;;;;;15.24;97.42;100668.53;5033007;28;20649;-72
2022/07/04 00:19:54;;;;;;;0.13;0.13;;;;;;;15.20;98.21;100666.81;5033380;28;20172;-73
2022/07/04 00:22:19;;;;;;;0.10;0.10;;;;;;;15.13;98.53;100675.59;5032828;28;20554;-72
2022/07/04 00:24:44;;;;;;;0.00;0.00;;;;;;;15.05;99.08;100677.28;5033084;28;20191;-75
2022/07/04 00:27:10;;;;;;;1.70;1.03;;;;;;;15.03;99.78;100673.22;5032959;28;20314;-72
2022/07/04 00:29:35;;;;;;;0.27;0.27;;;;;;;14.97;99.39;100677.34;5033067;28;20172;-73
2022/07/04 00:32:01;;;;;;;0.00;0.00;;;;;;;14.88;99.70;100682.88;5033038;28;20186;-71
2022/07/04 00:34:27;;;;;;;0.00;0.00;;;;;;;14.81;100.00;100697.19;5031848;28;20218;-72
2022/07/04 00:36:52;;;;;;;0.20;0.20;;;;;;;14.76;100.00;100680.09;5032892;28;20180;-72
2022/07/04 00:39:18;;;;;;;0.30;0.30;;;;;;;14.72;100.00;100677.16;5032823;28;20270;-72
2022/07/04 00:41:44;;;;;;;0.00;0.00;;;;;;;14.70;100.00;100676.69;5032861;28;20662;-73
2022/07/04 00:44:11;;;;;;;0.10;0.10;;;;;;;14.70;100.00;100673.94;5032856;28;20176;-72
2022/07/04 00:46:36;;;;;;;0.00;0.00;;;;;;;14.65;100.00;100679.66;5032703;28;20223;-73
2022/07/04 00:49:06;;;;;;;0.00;0.00;;;;;;;14.61;100.00;100684.22;5031522;28;20263;-72
2022/07/04 00:51:31;;;;;;;0.00;0.00;;;;;;;14.52;100.00;100684.25;5032742;28;20221;-70
2022/07/04 00:53:57;;;;;;;0.00;0.00;;;;;;;14.52;100.00;100688.94;5032564;28;20218;-73
2022/07/04 00:56:24;;;;;;;0.00;0.00;;;;;;;14.52;100.00;100683.44;5032637;28;20551;-72
2022/07/04 00:58:50;;;;;;;0.10;0.10;;;;;;;14.50;100.00;100686.53;5032387;28;20202;-71
2022/07/04 01:01:17;;;;;;;0.00;0.00;;;;;;;14.50;100.00;100686.53;5032623;28;20263;-72
2022/07/04 01:03:43;;;;;;;0.20;0.10;;;;;;;14.41;100.00;100688.47;5031970;28;20234;-71
2022/07/04 01:06:09;;;;;;;0.00;0.00;;;;;;;14.37;100.00;100692.22;5032486;28;20183;-72
2022/07/04 01:08:40;;;;;;;0.00;0.00;;;;;;;14.33;100.00;100691.28;5032045;28;20199;-71
2022/07/04 01:11:06;;;;;;;0.00;0.00;;;;;;;14.27;100.00;100683.22;5032526;28;20164;-72
2022/07/04 01:13:31;;;;;;;0.00;0.00;;;;;;;14.27;100.00;100683.22;5032255;28;20551;-71
2022/07/04 01:15:57;;;;;;;0.00;0.00;;;;;;;14.14;100.00;100681.47;5032334;28;20176;-72
2022/07/04 01:18:22;;;;;;;0.00;0.00;;;;;;;14.06;100.00;100687.84;5031726;28;20172;-73
2022/07/04 01:20:48;;;;;;;0.00;0.00;;;;;;;14.00;100.00;100686.38;5032114;28;20246;-72
2022/07/04 01:23:13;;;;;;;0.40;0.40;;;;;;;13.95;100.00;100681.88;5032240;28;20546;-72
2022/07/04 01:25:38;;;;;;;0.00;0.00;;;;;;;13.99;100.00;100687.53;5032386;28;20171;-72
2022/07/04 01:28:06;;;;;;;0.00;0.00;;;;;;;14.02;100.00;100686.06;5031787;28;20187;-71
2022/07/04 01:30:31;;;;;;;0.00;0.00;;;;;;;14.01;100.00;100690.75;5032002;28;20522;-72
2022/07/04 01:32:56;;;;;;;0.10;0.10;;;;;;;13.98;100.00;100686.72;5030138;28;20186;-76
2022/07/04 01:35:23;;;;;;;0.43;0.10;;;;;;;13.97;100.00;100687.03;5031895;28;20204;-72
2022/07/04 01:37:49;;;;;;;0.10;0.10;;;;;;;13.95;100.00;100681.88;5031487;28;20250;-73
2022/07/04 01:40:15;;;;;;;0.47;0.47;;;;;;;13.96;100.00;100688.19;5031737;28;20631;-72
2022/07/04 01:42:41;;;;;;;0.20;0.10;;;;;;;13.94;100.00;100693.19;5031838;28;20168;-71
2022/07/04 01:45:08;;;;;;;0.33;0.33;;;;;;;14.01;100.00;100696.22;5032066;28;20538;-71
2022/07/04 01:47:35;;;;;;;0.03;0.00;;;;;;;14.08;100.00;100704.78;5031382;28;20214;-72
2022/07/04 01:50:00;;;;;;;0.10;0.10;;;;;;;14.14;100.00;100697.97;5031433;28;20278;-71
2022/07/04 01:52:26;;;;;;;0.10;0.10;;;;;;;14.19;100.00;100695.06;5031675;28;20255;-72
2022/07/04 01:54:51;;;;;;;0.00;0.00;;;;;;;14.25;100.00;100693.72;5031542;28;20199;-71
2022/07/04 01:57:16;;;;;;;0.00;0.00;;;;;;;14.21;100.00;100705.72;5031500;28;20183;-72
2022/07/04 02:02:25;;;;;;;0.00;0.00;;;;;;;14.17;100.00;100702.00;5030660;28;20171;-71
2022/07/04 02:04:51;;;;;;;0.10;0.10;;;;;;;14.16;100.00;100701.19;5031361;28;20580;-71
2022/07/04 02:07:16;;;;;;;0.40;0.40;;;;;;;14.17;100.00;100696.50;5031192;28;20391;-71
2022/07/04 02:09:42;;;;;;;0.67;0.33;;;;;;;14.18;100.00;100692.66;5031127;28;20172;-72
2022/07/04 02:14:51;;;;;;;0.10;0.10;;;;;;;14.12;100.00;100693.94;5031534;28;20206;-71
2022/07/04 02:17:16;;;;;;;0.10;0.10;;;;;;;14.00;100.00;100698.19;5030964;28;20192;-71
2022/07/04 02:19:42;;;;;;;0.13;0.13;;;;;;;13.95;100.00;100698.38;5030832;28;20171;-72
2022/07/04 02:22:07;;;;;;;0.20;0.20;;;;;;;13.92;100.00;100695.47;5031015;28;20196;-71
2022/07/04 02:24:32;;;;;;;0.30;0.30;;;;;;;13.95;100.00;100697.56;5030934;28;20258;-74
2022/07/04 02:26:58;;;;;;;0.10;0.10;;;;;;;13.99;100.00;100698.50;5030867;28;20176;-71
2022/07/04 02:29:24;;;;;;;0.70;0.70;;;;;;;14.06;100.00;100703.50;5030694;28;20176;-72
2022/07/04 02:31:49;;;;;;;0.47;0.47;;;;;;;14.15;100.00;100704.28;5030929;28;20290;-72
2022/07/04 02:34:14;;;;;;;0.00;0.00;;;;;;;14.20;100.00;100702.16;5030858;28;20207;-71
2022/07/04 02:36:39;;;;;;;0.37;0.37;;;;;;;14.17;100.00;100699.25;5030760;28;20517;-71
2022/07/04 02:39:05;;;;;;;0.00;0.00;;;;;;;14.13;100.00;100698.31;5030646;28;20175;-71
2022/07/04 02:41:32;;;;;;;1.30;0.47;;;;;;;14.08;100.00;100707.53;5030827;28;20212;-73
2022/07/04 02:43:57;;;;;;;0.07;0.07;;;;;;;14.09;100.00;100709.16;5030891;28;20267;-73
2022/07/04 02:46:23;;;;;;;0.60;0.57;;;;;;;14.04;100.00;100711.28;5030823;28;20258;-73
2022/07/04 02:48:48;;;;;;;0.00;0.00;;;;;;;14.01;100.00;100715.47;5030483;28;20473;-73
2022/07/04 02:51:14;;;;;;;3.10;1.50;;;;;;;13.92;100.00;100721.00;5029440;28;20537;-73
2022/07/04 02:53:40;;;;;;;0.00;0.00;;;;;;;13.83;100.00;100722.13;5030520;28;20203;-72
2022/07/04 02:56:05;;;;;;;0.10;0.10;;;;;;;13.75;100.00;100733.97;5030814;28;20188;-73
2022/07/04 02:58:32;;;;;;;0.40;0.40;;;;;;;13.67;100.00;100725.41;5030299;28;20187;-73
2022/07/04 03:00:58;;;;;;;0.67;0.67;;;;;;;13.66;100.00;100732.03;5030615;28;20195;-73
2022/07/04 03:03:23;;;;;;;0.27;0.27;;;;;;;13.70;100.00;100726.69;5030106;28;20210;-74
2022/07/04 03:05:52;;;;;;;0.07;0.07;;;;;;;13.76;100.00;100727.34;5030599;28;20176;-73
2022/07/04 03:08:17;;;;;;;0.00;0.00;;;;;;;13.70;100.00;100741.22;5030097;28;20187;-74
2022/07/04 03:10:43;;;;;;;0.20;0.20;;;;;;;13.63;100.00;100740.91;5030519;28;20180;-73
2022/07/04 03:13:08;;;;;;;0.57;0.53;;;;;;;13.60;100.00;100736.09;5030526;28;20180;-72
2022/07/04 03:15:33;;;;;;;0.23;0.23;;;;;;;13.50;100.00;100739.16;5030273;28;20303;-73
2022/07/04 03:17:59;;;;;;;0.20;0.20;;;;;;;13.50;100.00;100754.81;5030135;28;20179;-73
2022/07/04 03:20:24;;;;;;;0.77;0.30;;;;;;;13.49;100.00;100742.22;5030250;28;20209;-73
2022/07/04 03:22:51;;;;;;;0.10;0.10;;;;;;;13.53;100.00;100752.22;5030515;28;20532;-73
2022/07/04 03:25:17;;;;;;;0.00;0.00;;;;;;;13.48;100.00;100749.66;5030543;28;20184;-73
2022/07/04 03:27:42;;;;;;;0.20;0.20;;;;;;;13.45;100.00;100763.19;5030296;28;20192;-73
2022/07/04 03:30:08;;;;;;;0.00;0.00;;;;;;;13.52;100.00;100761.59;5030277;28;20225;-73
2022/07/04 03:32:33;;;;;;;0.00;0.00;;;;;;;13.64;100.00;100759.00;5030341;28;20542;-73
2022/07/04 03:34:58;;;;;;;0.20;0.20;;;;;;;13.74;100.00;100765.28;5030184;28;20553;-74
2022/07/04 03:37:24;;;;;;;0.40;0.40;;;;;;;13.80;100.00;100761.25;5030490;28;20172;-73
2022/07/04 03:39:49;;;;;;;0.07;0.07;;;;;;;13.92;100.00;100769.63;5030064;28;20398;-73
2022/07/04 03:42:14;;;;;;;0.10;0.10;;;;;;;14.03;100.00;100776.38;5030290;28;20179;-73
2022/07/04 03:44:39;;;;;;;0.10;0.10;;;;;;;14.09;100.00;100777.03;5029014;28;20180;-74
2022/07/04 03:47:05;;;;;;;0.00;0.00;;;;;;;14.13;100.00;100775.25;5029030;28;20210;-73
2022/07/04 03:49:30;;;;;;;0.10;0.10;;;;;;;14.20;100.00;100772.81;5029887;28;20176;-73
2022/07/04 03:51:56;;;;;;;0.63;0.30;;;;;;;14.25;100.00;100770.69;5030149;28;20176;-74
2022/07/04 03:54:21;;;;;;;0.00;0.00;;;;;;;14.26;100.00;100787.97;5030123;28;20250;-74
2022/07/04 03:56:46;;;;;;;0.13;0.10;;;;;;;14.29;100.00;100788.13;5032331;28;20271;-73
2022/07/04 03:59:12;;;;;;;0.33;0.33;;;;;;;14.32;100.00;100780.34;5033792;28;20180;-74
2022/07/04 04:01:37;;;;;;;0.20;0.20;;;;;;;14.35;100.00;100783.28;5033612;28;20687;-74
2022/07/04 04:06:47;;;;;;;0.20;0.20;;;;;;;14.42;100.00;100785.50;5034293;28;20237;-75
2022/07/04 04:09:16;;;;;;;0.00;0.00;;;;;;;14.50;100.00;100784.72;5035843;28;20188;-76
2022/07/04 04:11:42;;;;;;;0.00;0.00;;;;;;;14.55;100.00;100790.81;5034513;28;20175;-76
2022/07/04 04:14:08;;;;;;;0.00;0.00;;;;;;;14.62;100.00;100790.31;5033414;28;20207;-75
2022/07/04 04:16:33;;;;;;;0.00;0.00;;;;;;;14.68;100.00;100791.75;5033583;28;20179;-76
2022/07/04 04:18:59;;;;;;;0.00;0.00;;;;;;;14.75;100.00;100797.53;5033414;28;20178;-74
2022/07/04 04:21:24;;;;;;;0.20;0.20;;;;;;;14.80;100.00;100794.59;5033197;28;20195;-76
2022/07/04 04:23:50;;;;;;;0.20;0.20;;;;;;;14.85;100.00;100804.59;5033279;28;20542;-73
2022/07/04 04:26:15;;;;;;;0.30;0.30;;;;;;;14.90;99.75;100804.44;5033214;28;20251;-74
2022/07/04 04:28:41;;;;;;;0.10;0.10;;;;;;;14.94;99.40;100815.56;5032717;28;20176;-75
2022/07/04 04:31:06;;;;;;;1.00;1.00;;;;;;;14.95;99.23;100811.69;5033034;28;20643;-76
2022/07/04 04:33:31;;;;;;;0.40;0.40;;;;;;;14.93;98.65;100817.53;5033006;28;20179;-75
2022/07/04 04:35:57;;;;;;;0.27;0.27;;;;;;;14.95;99.08;100818.00;5032931;28;20184;-75
2022/07/04 04:38:22;;;;;;;0.10;0.10;;;;;;;14.94;99.27;100819.13;5031175;28;20180;-75
2022/07/04 04:40:47;;;;;;;0.10;0.10;;;;;;;14.91;99.19;100825.31;5031661;28;20184;-75
2022/07/04 04:43:13;;;;;;;0.50;0.50;;;;;;;14.93;99.26;100819.47;5032721;28;20183;-75
2022/07/04 04:45:39;;;;;;;0.00;0.00;;;;;;;14.96;99.12;100822.34;5032838;28;20211;-76
2022/07/04 04:48:05;;;;;;;0.00;0.00;;;;;;;14.93;98.96;100823.03;5032361;28;20180;-75
2022/07/04 04:50:30;;;;;;;0.20;0.20;;;;;;;14.90;99.23;100823.69;5032742;28;20606;-74
2022/07/04 04:52:57;;;;;;;0.00;0.00;;;;;;;14.85;99.82;100824.66;5032775;28;20176;-76
2022/07/04 04:55:22;;;;;;;0.00;0.00;;;;;;;14.84;100.00;100827.75;5032643;28;20512;-75
2022/07/04 04:57:48;;;;;;;0.60;0.60;;;;;;;14.84;100.00;100836.00;5032440;28;20187;-76
2022/07/04 05:00:14;;;;;;;0.20;0.20;;;;;;;14.84;100.00;100833.25;5032515;28;20598;-74
2022/07/04 05:02:39;;;;;;;0.77;0.77;;;;;;;14.79;100.00;100831.50;5030393;28;20651;-74
2022/07/04 05:05:06;;;;;;;0.20;0.20;;;;;;;14.80;100.00;100835.88;5032429;28;20275;-76
2022/07/04 05:07:31;;;;;;;0.40;0.40;;;;;;;14.82;100.00;100836.34;5030963;28;20230;-73
2022/07/04 05:09:58;;;;;;;0.50;0.50;;;;;;;14.79;100.00;100836.19;5032030;28;20203;-75
2022/07/04 05:12:25;;;;;;;0.00;0.00;;;;;;;14.81;100.00;100837.47;5032304;28;20172;-74
2022/07/04 05:14:50;;;;;;;0.87;0.87;;;;;;;14.83;100.00;100837.16;5032097;28;20203;-75
2022/07/04 05:17:15;;;;;;;0.50;0.30;;;;;;;14.93;100.00;100846.97;5031932;28;20175;-74
2022/07/04 05:19:40;;;;;;;0.47;0.47;;;;;;;14.94;100.00;100852.16;5031869;28;20200;-75
2022/07/04 05:22:06;;;;;;;0.00;0.00;;;;;;;15.00;100.00;100852.75;5031992;28;20183;-75
2022/07/04 05:24:31;;;;;;;0.00;0.00;;;;;;;15.11;100.00;100849.31;5032001;28;20199;-73
2022/07/04 05:26:56;;;;;;;0.77;0.77;;;;;;;15.15;100.00;100852.19;5031828;28;20178;-75
2022/07/04 05:29:22;;;;;;;1.10;1.00;;;;;;;15.15;100.00;100847.50;5031706;28;20187;-75
2022/07/04 05:31:47;;;;;;;0.23;0.23;;;;;;;15.17;100.00;100844.41;5032049;28;20202;-76
2022/07/04 05:34:12;;;;;;;0.33;0.13;;;;;;;15.21;100.00;100844.56;5031826;28;20203;-75
2022/07/04 05:36:37;;;;;;;0.00;0.00;;;;;;;15.30;100.00;100842.56;5031812;28;20585;-74
2022/07/04 05:39:03;;;;;;;0.40;0.40;;;;;;;15.45;100.00;100848.28;5031547;28;20176;-73
2022/07/04 05:41:28;;;;;;;0.00;0.00;;;;;;;15.59;100.00;100842.56;5031738;28;20199;-73
2022/07/04 05:43:53;;;;;;;0.60;0.60;;;;;;;15.65;100.00;100843.19;5031729;28;20652;-72
2022/07/04 05:46:19;;;;;;;0.63;0.50;;;;;;;15.68;100.00;100839.75;5031536;28;20176;-74
2022/07/04 05:48:44;;;;;;;2.00;0.53;;;;;;;15.71;100.00;100841.81;5031174;28;20266;-75
2022/07/04 05:51:09;;;;;;;0.83;0.50;;;;;;;15.76;100.00;100836.09;5031521;28;20175;-75
2022/07/04 05:53:35;;;;;;;1.90;0.43;;;;;;;15.87;100.00;100840.06;5031349;28;20183;-75
2022/07/04 05:56:00;;;;;;;0.00;0.00;;;;;;;16.06;100.00;100842.34;5031364;28;20183;-74
2022/07/04 05:58:26;;;;;;;0.23;0.23;;;;;;;16.21;100.00;100836.22;5031069;28;20206;-76
2022/07/04 06:00:51;;;;;;;0.00;0.00;;;;;;;16.45;100.00;100837.41;5031385;28;20538;-75
2022/07/04 06:03:16;;;;;;;0.80;0.80;;;;;;;16.60;100.00;100851.34;5029757;28;20180;-74
2022/07/04 06:05:42;;;;;;;0.00;0.00;;;;;;;16.73;100.00;100843.13;5031169;28;20186;-73
2022/07/04 06:08:07;;;;;;;0.50;0.50;;;;;;;16.78;99.53;100843.72;5030870;28;20204;-73
2022/07/04 06:10:33;;;;;;;0.10;0.10;;;;;;;16.84;98.67;100841.53;5031346;28;20647;-72
2022/07/04 06:12:58;;;;;;;0.10;0.10;;;;;;;17.08;98.57;100844.31;5031163;28;20620;-72
2022/07/04 06:15:24;;;;;;;0.57;0.57;;;;;;;17.15;96.63;100835.44;5031202;28;20290;-72
2022/07/04 06:17:49;;;;;;;0.67;0.63;;;;;;;17.11;95.53;100835.31;5030636;28;20207;-75
2022/07/04 06:20:15;;;;;;;1.23;1.17;;;;;;;17.09;96.21;100839.59;5029266;28;20225;-75
2022/07/04 06:22:46;;;;;;;1.47;1.43;;;;;;;17.07;95.70;100834.41;5030941;28;20562;-74
2022/07/04 06:25:16;;;;;;;8.03;2.40;;;;;;;17.02;92.88;100839.34;5031028;28;20226;-72
2022/07/04 06:27:43;;;;;;;0.73;0.73;;;;;;;16.95;91.46;100837.97;5030909;28;20655;-72
2022/07/04 06:30:09;;;;;;;0.93;0.90;;;;;;;16.88;92.05;100825.88;5030729;28;20176;-72
2022/07/04 06:32:53;;;;;;;0.57;0.57;;;;;;;16.77;93.20;100831.03;5030862;28;20168;-73
2022/07/04 06:38:05;;;;;;;8.67;2.13;;;;;;;16.58;93.27;100842.59;5030672;28;20445;-74
2022/07/04 06:40:31;;;;;;;2.30;0.73;;;;;;;16.46;94.49;100837.06;5030813;28;20175;-73
2022/07/04 06:42:56;;;;;;;0.67;0.67;;;;;;;16.49;94.27;100838.31;5029586;28;20211;-74
2022/07/04 06:45:21;;;;;;;0.60;0.60;;;;;;;16.65;93.99;100848.38;5030737;28;20639;-72
2022/07/04 06:47:47;;;;;;;0.33;0.30;;;;;;;16.76;92.90;100839.66;5030330;28;20627;-75
2022/07/04 06:50:12;;;;;;;0.03;0.03;;;;;;;16.84;92.27;100839.56;5030732;28;20191;-74
2022/07/04 06:52:39;;;;;;;1.60;0.83;;;;;;;16.90;90.73;100840.13;5030678;28;20175;-73
2022/07/04 06:55:06;;;;;;;0.43;0.43;;;;;;;16.99;89.72;100842.81;5030592;28;20203;-74
2022/07/04 06:57:31;;;;;;;30.00;2.10;;;;;;;17.16;89.24;100848.09;5030519;28;20204;-73
2022/07/04 06:59:57;;;;;;;1.13;0.70;;;;;;;17.18;86.52;100852.09;5030359;28;20207;-74
2022/07/04 07:02:23;;;;;;;0.07;0.07;;;;;;;17.25;85.85;100846.81;5029824;28;20172;-75
2022/07/04 07:04:48;;;;;;;0.50;0.50;;;;;;;17.43;84.98;100847.38;5030939;28;20234;-76
2022/07/04 07:07:13;;;;;;;0.77;0.77;;;;;;;17.55;83.19;100843.78;5030515;28;20715;-75
2022/07/04 07:09:38;;;;;;;1.43;0.73;;;;;;;17.58;82.31;100837.56;5030290;28;20748;-75
2022/07/04 07:12:04;;;;;;;0.00;0.00;;;;;;;17.59;81.08;100844.69;5030577;28;20176;-75
2022/07/04 07:14:29;;;;;;;0.20;0.20;;;;;;;17.80;82.49;100839.84;5030360;28;20212;-76
2022/07/04 07:16:55;;;;;;;0.80;0.80;;;;;;;17.82;80.56;100837.53;5030370;28;20200;-75
2022/07/04 07:19:20;;;;;;;0.03;0.03;;;;;;;17.97;80.44;100843.47;5030167;28;20182;-77
2022/07/04 07:21:46;;;;;;;0.27;0.27;;;;;;;18.03;79.91;100850.34;5030493;28;20697;-76
2022/07/04 07:24:11;;;;;;;0.30;0.30;;;;;;;17.95;80.14;100845.78;5030560;28;20203;-74
2022/07/04 07:26:36;;;;;;;1.00;1.00;;;;;;;17.61;80.49;100841.56;5030235;28;20193;-75
2022/07/04 07:29:02;;;;;;;0.20;0.20;;;;;;;17.64;80.55;100847.19;5030203;28;20204;-76
2022/07/04 07:31:27;;;;;;;0.00;0.00;;;;;;;17.85;78.86;100841.53;5032602;28;20169;-76
2022/07/04 07:33:53;;;;;;;0.00;0.00;;;;;;;18.14;76.19;100849.50;5034048;28;20287;-75
2022/07/04 07:36:18;;;;;;;0.27;0.20;;;;;;;18.43;76.00;100851.09;5033969;28;20547;-75
2022/07/04 07:38:43;;;;;;;1.20;0.57;;;;;;;18.44;75.44;100855.44;5033832;28;20218;-76
2022/07/04 07:41:10;;;;;;;0.70;0.63;;;;;;;18.12;75.25;100851.81;5034370;28;20270;-75
2022/07/04 07:43:36;;;;;;;0.20;0.20;;;;;;;17.95;75.44;100845.78;5033976;28;20373;-75
2022/07/04 07:46:04;;;;;;;0.00;0.00;;;;;;;17.96;75.93;100848.19;5033814;28;20191;-73
2022/07/04 07:48:30;;;;;;;0.00;0.00;;;;;;;17.94;74.86;100849.69;5029758;28;20182;-73
2022/07/04 07:50:55;;;;;;;0.00;0.00;;;;;;;18.03;74.65;100844.81;5033804;28;20183;-73
2022/07/04 07:53:20;;;;;;;0.00;0.00;;;;;;;18.21;74.28;100843.34;5033764;28;20180;-73
2022/07/04 07:55:46;;;;;;;0.00;0.00;;;;;;;18.30;73.66;100849.53;5033601;28;20207;-72
2022/07/04 07:58:11;;;;;;;0.30;0.30;;;;;;;18.22;72.34;100856.00;5033410;28;20245;-74
2022/07/04 08:00:37;;;;;;;0.00;0.00;;;;;;;18.20;73.10;100854.75;5033714;28;20180;-73
2022/07/04 08:05:46;;;;;;;0.20;0.20;;;;;;;18.13;73.02;100852.63;5033916;28;20183;-73
2022/07/04 08:08:12;;;;;;;7.53;0.63;;;;;;;18.07;73.85;100854.00;5033301;28;20176;-74
2022/07/04 08:10:37;;;;;;;0.00;0.00;;;;;;;18.04;74.01;100840.91;5033575;28;20179;-74
2022/07/04 08:13:04;;;;;;;0.00;0.00;;;;;;;17.97;74.09;100846.22;5033658;28;20358;-73
2022/07/04 08:15:29;;;;;;;0.10;0.10;;;;;;;17.94;73.21;100839.44;5033469;28;20242;-74
2022/07/04 08:17:54;;;;;;;0.10;0.07;;;;;;;18.07;73.12;100831.88;5033313;28;20254;-74
2022/07/04 08:20:20;;;;;;;0.00;0.00;;;;;;;18.28;71.08;100828.91;5033324;28;20279;-74
2022/07/04 08:22:45;;;;;;;0.00;0.00;;;;;;;18.49;69.54;100828.69;5033426;28;20263;-73
2022/07/04 08:25:11;;;;;;;0.30;0.23;;;;;;;18.71;68.00;100833.66;5031603;28;20191;-73
2022/07/04 08:27:36;;;;;;;0.00;0.00;;;;;;;18.89;66.10;100834.09;5032378;28;20183;-73
2022/07/04 08:30:02;;;;;;;0.10;0.10;;;;;;;19.19;67.37;100826.91;5032815;28;20191;-73
2022/07/04 08:32:28;;;;;;;0.30;0.30;;;;;;;19.38;64.98;100834.44;5033029;28;20224;-74
2022/07/04 08:34:54;;;;;;;0.00;0.00;;;;;;;19.32;65.47;100830.38;5032952;28;20202;-77
2022/07/04 08:37:20;;;;;;;0.00;0.00;;;;;;;19.21;67.41;100829.31;5032954;28;20510;-75
2022/07/04 08:39:45;;;;;;;0.00;0.00;;;;;;;19.17;68.00;100826.47;5032695;28;20179;-76
2022/07/04 08:42:19;;;;;;;0.00;0.00;;;;;;;19.12;68.04;100837.03;5032729;28;20688;-75
2022/07/04 08:44:50;;;;;;;0.00;0.00;;;;;;;18.93;67.56;100829.44;5032918;28;20180;-73
2022/07/04 08:47:25;;;;;;;0.20;0.20;;;;;;;18.80;68.22;100834.25;5031177;28;20710;-77
2022/07/04 08:49:59;;;;;;;0.00;0.00;;;;;;;18.94;68.80;100831.03;5032586;28;20180;-72
2022/07/04 08:52:34;;;;;;;0.00;0.00;;;;;;;19.32;69.51;100824.81;5032852;28;20160;-73
2022/07/04 09:00:30;;;;;;;0.00;0.00;;;;;;;19.45;65.68;100829.06;5032551;28;20263;-73
2022/07/04 09:02:56;;;;;;;0.00;0.00;;;;;;;19.15;67.07;100839.88;5032029;28;20263;-73
2022/07/04 09:05:22;;;;;;;0.00;0.00;;;;;;;19.05;67.67;100837.63;5032520;28;20180;-74
2022/07/04 09:07:47;;;;;;;0.00;0.00;;;;;;;19.07;66.48;100840.84;5032225;28;20230;-74
2022/07/04 09:10:13;;;;;;;0.50;0.50;;;;;;;19.31;66.75;100848.16;5032286;28;20187;-74
2022/07/04 09:12:39;;;;;;;0.00;0.00;;;;;;;19.66;65.41;100842.63;5031543;28;20206;-73
2022/07/04 09:15:06;;;;;;;0.00;0.00;;;;;;;19.76;62.68;100835.72;5028819;28;20211;-74
2022/07/04 09:17:33;;;;;;;0.00;0.00;;;;;;;19.79;61.33;100843.28;5031702;28;20204;-74
2022/07/04 09:20:14;;;;;;;0.00;0.00;;;;;;;19.90;62.55;100834.03;5031878;28;20202;-73
2022/07/04 09:22:40;;;;;;;0.77;0.20;;;;;;;19.95;59.47;100835.72;5030610;28;20195;-73
2022/07/04 09:25:06;;;;;;;0.00;0.00;;;;;;;20.14;58.56;100832.94;5032087;28;20545;-73
2022/07/04 09:27:35;;;;;;;0.17;0.17;;;;;;;20.47;57.21;100828.81;5031757;28;20226;-73
2022/07/04 09:30:02;;;;;;;0.63;0.60;;;;;;;20.57;56.38;100831.00;5031646;28;20203;-73
2022/07/04 09:32:37;;;;;;;0.70;0.70;;;;;;;20.50;55.89;100826.09;5031944;28;20180;-73
2022/07/04 09:35:08;;;;;;;0.20;0.20;;;;;;;20.79;57.61;100835.72;5015668;28;20269;-74
2022/07/04 09:37:45;;;;;;;0.00;0.00;;;;;;;21.01;55.59;100828.56;5023230;28;20185;-73
2022/07/04 09:40:20;;;;;;;3.07;0.00;;;;;;;21.00;54.59;100826.16;5031515;28;20164;-74
2022/07/04 09:42:46;;;;;;;0.07;0.07;;;;;;;20.90;53.08;100829.56;5015191;28;20176;-74
2022/07/04 09:45:11;;;;;;;0.07;0.07;;;;;;;20.59;52.15;100825.06;5031702;28;20540;-74
2022/07/04 09:47:39;;;;;;;0.00;0.00;;;;;;;20.67;53.45;100818.44;5031342;28;20175;-73
2022/07/04 09:50:09;;;;;;;0.00;0.00;;;;;;;20.83;54.04;100819.16;5031526;28;20184;-74
2022/07/04 09:53:00;;;;;;;0.00;0.00;;;;;;;21.04;54.07;100813.91;5030983;28;20183;-73
2022/07/04 09:55:30;;;;;;;0.00;0.00;;;;;;;21.13;51.85;100810.09;5030713;28;20303;-73
2022/07/04 09:58:01;;;;;;;0.00;0.00;;;;;;;21.18;52.20;100815.31;5030791;28;20227;-73
2022/07/04 10:00:28;;;;;;;0.10;0.10;;;;;;;21.21;51.09;100823.69;5031190;28;20205;-73
2022/07/04 10:02:55;;;;;;;0.10;0.10;;;;;;;20.92;51.65;100827.19;5030790;28;20176;-74
2022/07/04 10:05:26;;;;;;;0.00;0.00;;;;;;;20.95;51.14;100818.13;5031186;28;20174;-73
2022/07/04 10:07:54;;;;;;;0.17;0.17;;;;;;;20.85;50.21;100814.00;5030722;28;20180;-73
2022/07/04 10:10:23;;;;;;;0.00;0.00;;;;;;;20.98;50.30;100806.28;5031218;28;20171;-73
2022/07/04 10:12:50;;;;;;;0.00;0.00;;;;;;;21.20;49.78;100813.75;5030737;28;20262;-73
2022/07/04 10:15:19;;;;;;;0.00;0.00;;;;;;;21.06;48.10;100810.75;5030580;28;20238;-73
2022/07/04 10:17:45;;;;;;;0.10;0.10;;;;;;;21.14;50.12;100809.72;5030404;28;20260;-75
2022/07/04 10:20:13;;;;;;;0.00;0.00;;;;;;;21.23;49.63;100809.41;5031385;28;20250;-74
2022/07/04 10:22:39;;;;;;;0.00;0.00;;;;;;;21.33;49.35;100801.28;5032733;28;20223;-75
2022/07/04 10:25:07;;;;;;;0.00;0.00;;;;;;;21.35;49.17;100798.13;5031182;28;20636;-75
2022/07/04 10:27:32;;;;;;;0.27;0.27;;;;;;;21.56;48.73;100803.97;5031036;28;20179;-75
2022/07/04 10:29:59;;;;;;;0.10;0.10;;;;;;;21.55;46.73;100804.31;5028766;28;20172;-75
2022/07/04 10:32:27;;;;;;;0.00;0.00;;;;;;;21.52;45.26;100799.53;5030674;28;20182;-75
2022/07/04 10:34:52;;;;;;;0.00;0.00;;;;;;;21.53;45.83;100803.91;5029968;28;20193;-73
2022/07/04 10:37:17;;;;;;;2.00;1.93;;;;;;;21.59;48.01;100797.66;5029292;28;20175;-75
2022/07/04 10:39:43;;;;;;;0.00;0.00;;;;;;;21.86;47.10;100800.38;5030716;28;20172;-74
2022/07/04 10:42:09;;;;;;;0.07;0.07;;;;;;;21.92;46.59;100798.84;5031146;28;20679;-73
2022/07/04 10:44:37;;;;;;;0.10;0.10;;;;;;;22.03;46.31;100785.06;5030511;28;20175;-73
2022/07/04 10:47:04;;;;;;;0.00;0.00;;;;;;;21.92;46.25;100782.94;5030209;28;20642;-73
2022/07/04 10:49:29;;;;;;;0.20;0.20;;;;;;;22.08;47.67;100779.19;5028708;28;20183;-73
2022/07/04 10:52:08;;;;;;;0.10;0.10;;;;;;;21.93;46.70;100776.19;5030236;28;20244;-73
2022/07/04 10:54:36;;;;;;;0.77;0.77;;;;;;;21.95;46.00;100786.94;5030254;28;20203;-73
2022/07/04 10:57:23;;;;;;;0.00;0.00;;;;;;;21.98;45.61;100781.41;5030033;28;20175;-73
2022/07/04 10:59:56;;;;;;;0.03;0.00;;;;;;;21.74;45.53;100768.03;5029915;28;20182;-73
2022/07/04 11:02:39;;;;;;;0.00;0.00;;;;;;;21.71;44.63;100774.38;5029337;28;20252;-73
2022/07/04 11:05:09;;;;;;;0.00;0.00;;;;;;;21.97;46.82;100776.25;5031783;28;20170;-74
2022/07/04 11:07:35;;;;;;;0.10;0.10;;;;;;;22.09;45.91;100778.00;5033960;28;20168;-73
2022/07/04 11:10:12;;;;;;;0.00;0.00;;;;;;;22.24;46.36;100785.31;5033730;28;20179;-73
2022/07/04 11:12:55;;;;;;;0.00;0.00;;;;;;;22.35;47.35;100777.06;5034140;28;20171;-73
2022/07/04 11:15:27;;;;;;;0.30;0.30;;;;;;;22.45;47.79;100782.75;5032799;28;20205;-72
2022/07/04 11:18:00;;;;;;;0.47;0.20;;;;;;;22.52;46.58;100774.44;5033311;28;20179;-73
2022/07/04 11:20:28;;;;;;;0.30;0.30;;;;;;;22.00;46.72;100766.34;5033748;28;20487;-73
2022/07/04 11:23:14;;;;;;;0.03;0.03;;;;;;;22.09;47.52;100761.28;5034100;28;20174;-74
2022/07/04 11:25:41;;;;;;;0.40;0.40;;;;;;;22.23;46.01;100756.66;5033970;28;20266;-75
2022/07/04 11:28:27;;;;;;;0.97;0.93;;;;;;;22.43;46.48;100760.06;5033192;28;20177;-74
2022/07/04 11:30:54;;;;;;;0.00;0.00;;;;;;;22.46;46.62;100753.72;5033810;28;20171;-75
2022/07/04 11:33:22;;;;;;;0.00;0.00;;;;;;;22.56;45.71;100758.53;5034008;28;20624;-73
2022/07/04 11:36:06;;;;;;;0.00;0.00;;;;;;;22.52;46.81;100754.94;5033922;28;20260;-75
2022/07/04 11:38:53;;;;;;;0.00;0.00;;;;;;;22.20;46.16;100749.09;5032958;28;20180;-74